EIKN/NOC METAR and TAF weather

Enter ICAO airport designator
Station Type Date Time Source
EIKN METAR 2019/08/24 09:30 UTC NOAA

EIKN 240930Z 14007KT 100V190 8000 -RA SCT025 BKN090 14/13 Q1014 NOSIG


Station Type Date Time Source
EIKN Decoded METAR 2019/08/24 09:30 UTC NOAA

Station name not available
Aug 24, 2019 - 05:30 AM EDT / 2019.08.24 0930 UTC
Wind: from the SE (140 degrees) at 8 MPH (7 KT) (direction variable):0
Visibility: 4 mile(s):0
Sky conditions: mostly cloudy
Weather: light rain
Temperature: 57 F (14 C)
Dew Point: 55 F (13 C)
Relative Humidity: 93%
Pressure (altimeter): 29.94 in. Hg (1014 hPa)
ob: EIKN 240930Z 14007KT 100V190 8000 -RA SCT025 BKN090 14/13 Q1014 NOSIG
cycle: 9

Station Type Date Time Source
EIKN TAF 2019/08/24 06:12 UTC NOAA

TAF EIKN 240500Z 2406/2506 14007KT 9999 SCT040
BECMG 2412/2415 VRB03KT
BECMG 2500/2502 34007KT PROB30
TEMPO 2500/2506 3000 BR BKN007

Example: see airport list